Time,TemperatureF,DewpointF,PressureIn,WindDirection,WindDirectionDegrees,WindSpeedMPH,WindSpeedGustMPH,Humidity,HourlyPrecipIn,Conditions,Clouds,dailyrainin,SolarRadiationWatts/m^2,SoftwareType,DateUTC
2013-11-20 00:10:00,26.5,12.5,23.30,North,360,0.0,0.0,55,0.00,,,0.00,0,Wunderground v.1.15,2013-11-20 05:10:00,
2013-11-20 00:20:00,26.2,12.2,23.30,North,360,0.0,0.0,55,0.00,,,0.00,0,Wunderground v.1.15,2013-11-20 05:20:00,
2013-11-20 00:40:00,25.7,12.6,23.30,North,360,0.0,0.0,57,0.00,,,0.00,0,Wunderground v.1.15,2013-11-20 05:40:00,
2013-11-20 00:50:00,25.3,12.6,23.30,North,360,0.0,0.0,58,0.00,,,0.00,0,Wunderground v.1.15,2013-11-20 05:50:00,
2013-11-20 01:00:00,25.0,12.7,23.30,North,360,0.0,0.0,59,0.00,,,0.00,0,Wunderground v.1.15,2013-11-20 06:00:00,
2013-11-20 01:10:00,24.7,12.4,23.30,North,360,0.0,0.0,59,0.00,,,0.00,0,Wunderground v.1.15,2013-11-20 06:10:00,
2013-11-20 01:20:00,24.7,12.4,23.31,North,360,0.0,0.0,59,0.00,,,0.00,0,Wunderground v.1.15,2013-11-20 06:20:00,
2013-11-20 01:40:00,24.6,12.7,23.31,North,360,0.0,0.0,60,0.00,,,0.00,0,Wunderground v.1.15,2013-11-20 06:40:00,
2013-11-20 01:50:00,24.7,12.8,23.31,North,360,0.0,0.0,60,0.00,,,0.00,0,Wunderground v.1.15,2013-11-20 06:50:00,
2013-11-20 02:10:00,24.1,12.9,23.31,North,360,0.0,0.0,62,0.00,,,0.00,0,Wunderground v.1.15,2013-11-20 07:10:00,
2013-11-20 02:19:00,23.4,13.0,23.31,North,360,0.0,0.0,64,0.00,,,0.00,0,Wunderground v.1.15,2013-11-20 07:19:00,
2013-11-20 02:30:00,22.9,13.2,23.31,North,360,0.0,0.0,66,0.00,,,0.00,0,Wunderground v.1.15,2013-11-20 07:30:00,
2013-11-20 02:40:00,22.4,13.1,23.31,North,360,0.0,0.0,67,0.00,,,0.00,0,Wunderground v.1.15,2013-11-20 07:40:00,
2013-11-20 02:49:00,21.8,13.2,23.31,North,360,0.0,0.0,69,0.00,,,0.00,0,Wunderground v.1.15,2013-11-20 07:49:00,
2013-11-20 03:10:00,21.3,13.0,23.32,North,360,0.0,0.0,70,0.00,,,0.00,0,Wunderground v.1.15,2013-11-20 08:10:00,
2013-11-20 03:20:00,21.5,13.2,23.32,North,360,0.0,0.0,70,0.00,,,0.00,0,Wunderground v.1.15,2013-11-20 08:20:00,
2013-11-20 03:30:00,21.3,13.0,23.32,North,360,0.0,0.0,70,0.00,,,0.00,0,Wunderground v.1.15,2013-11-20 08:30:00,
2013-11-20 03:40:00,21.5,13.2,23.32,North,360,0.0,0.0,70,0.00,,,0.00,0,Wunderground v.1.15,2013-11-20 08:40:00,
2013-11-20 03:49:00,21.5,13.2,23.32,North,360,0.0,0.0,70,0.00,,,0.00,0,Wunderground v.1.15,2013-11-20 08:49:00,
2013-11-20 04:09:00,20.9,13.3,23.32,North,9,1.0,1.0,72,0.00,,,0.00,0,Wunderground v.1.15,2013-11-20 09:09:00,
2013-11-20 04:19:00,20.5,13.2,23.33,North,9,0.0,0.0,73,0.00,,,0.00,0,Wunderground v.1.15,2013-11-20 09:19:00,
2013-11-20 04:39:00,20.4,13.1,23.33,North,9,0.0,0.0,73,0.00,,,0.00,0,Wunderground v.1.15,2013-11-20 09:39:00,
2013-11-20 04:50:00,20.4,13.1,23.33,North,9,0.0,0.0,73,0.00,,,0.00,0,Wunderground v.1.15,2013-11-20 09:50:00,
2013-11-20 05:10:00,21.0,13.1,23.33,North,9,0.0,0.0,71,0.00,,,0.00,0,Wunderground v.1.15,2013-11-20 10:10:00,
2013-11-20 05:19:00,21.0,12.7,23.33,North,9,0.0,0.0,70,0.00,,,0.00,0,Wunderground v.1.15,2013-11-20 10:19:00,
2013-11-20 05:39:00,21.3,12.7,23.33,North,351,0.0,0.0,69,0.00,,,0.00,0,Wunderground v.1.15,2013-11-20 10:39:00,
2013-11-20 05:49:00,21.3,13.0,23.33,North,351,0.0,0.0,70,0.00,,,0.00,0,Wunderground v.1.15,2013-11-20 10:49:00,
2013-11-20 06:09:00,20.7,12.8,23.34,North,351,0.0,0.0,71,0.00,,,0.00,0,Wunderground v.1.15,2013-11-20 11:09:00,
2013-11-20 06:19:00,20.4,12.5,23.34,North,351,0.0,0.0,71,0.00,,,0.00,0,Wunderground v.1.15,2013-11-20 11:19:00,
2013-11-20 06:39:00,19.8,12.5,23.34,North,351,0.0,0.0,73,0.00,,,0.00,0,Wunderground v.1.15,2013-11-20 11:39:00,
2013-11-20 06:49:00,19.8,12.8,23.34,North,351,0.0,0.0,74,0.00,,,0.00,0,Wunderground v.1.15,2013-11-20 11:49:00,
2013-11-20 07:00:00,19.9,12.9,23.34,North,351,0.0,0.0,74,0.00,,,0.00,5,Wunderground v.1.15,2013-11-20 12:00:00,
2013-11-20 07:09:00,19.8,12.8,23.34,North,351,0.0,0.0,74,0.00,,,0.00,7,Wunderground v.1.15,2013-11-20 12:09:00,
2013-11-20 07:19:00,19.3,12.7,23.34,North,351,0.0,0.0,75,0.00,,,0.00,12,Wunderground v.1.15,2013-11-20 12:19:00,
2013-11-20 07:30:00,19.1,12.8,23.34,North,351,0.0,0.0,76,0.00,,,0.00,16,Wunderground v.1.15,2013-11-20 12:30:00,
2013-11-20 07:39:00,19.4,13.1,23.34,North,351,0.0,0.0,76,0.00,,,0.00,18,Wunderground v.1.15,2013-11-20 12:39:00,
2013-11-20 07:49:00,19.8,13.8,23.35,North,351,0.0,0.0,77,0.00,,,0.00,21,Wunderground v.1.15,2013-11-20 12:49:00,
2013-11-20 08:09:00,22.0,14.7,23.35,North,351,0.0,0.0,73,0.00,,,0.00,167,Wunderground v.1.15,2013-11-20 13:09:00,
2013-11-20 08:19:00,23.2,15.2,23.35,North,351,0.0,3.0,71,0.00,,,0.00,188,Wunderground v.1.15,2013-11-20 13:19:00,
2013-11-20 08:39:00,25.5,15.7,23.35,North,360,1.0,1.0,66,0.00,,,0.00,236,Wunderground v.1.15,2013-11-20 13:39:00,
2013-11-20 08:49:00,26.0,15.8,23.35,North,351,2.0,2.0,65,0.00,,,0.00,260,Wunderground v.1.15,2013-11-20 13:49:00,
2013-11-20 09:00:00,26.6,16.1,23.35,North,351,2.0,5.0,64,0.00,,,0.00,269,Wunderground v.1.15,2013-11-20 14:00:00,
2013-11-20 09:09:00,27.1,15.8,23.35,NNE,17,2.0,2.0,62,0.00,,,0.00,279,Wunderground v.1.15,2013-11-20 14:09:00,
2013-11-20 09:19:00,27.5,15.4,23.35,NNW,344,3.0,3.0,60,0.00,,,0.00,297,Wunderground v.1.15,2013-11-20 14:19:00,
2013-11-20 09:39:00,28.9,15.6,23.35,North,360,1.0,1.0,57,0.00,,,0.00,323,Wunderground v.1.15,2013-11-20 14:39:00,
2013-11-20 09:49:00,29.0,14.8,23.35,North,360,2.0,2.0,55,0.00,,,0.00,350,Wunderground v.1.15,2013-11-20 14:49:00,
2013-11-20 10:09:00,29.4,14.4,23.35,NNE,30,2.0,2.0,53,0.00,,,0.00,378,Wunderground v.1.15,2013-11-20 15:09:00,
2013-11-20 10:19:00,29.7,15.1,23.35,NE,40,2.0,2.0,54,0.00,,,0.00,352,Wunderground v.1.15,2013-11-20 15:19:00,
2013-11-20 10:39:00,30.2,15.1,23.35,ENE,71,2.0,5.0,53,0.00,,,0.00,355,Wunderground v.1.15,2013-11-20 15:39:00,
2013-11-20 10:49:00,30.2,14.7,23.35,NE,52,2.0,2.0,52,0.00,,,0.00,53,Wunderground v.1.15,2013-11-20 15:49:00,
2013-11-20 11:09:00,30.8,15.2,23.35,ENE,58,0.0,0.0,52,0.00,,,0.00,431,Wunderground v.1.15,2013-11-20 16:09:00,
2013-11-20 11:19:00,31.2,15.6,23.35,ENE,69,0.0,0.0,52,0.00,,,0.00,432,Wunderground v.1.15,2013-11-20 16:19:00,
2013-11-20 11:39:00,31.7,14.7,23.35,ESE,121,0.0,0.0,49,0.00,,,0.00,438,Wunderground v.1.15,2013-11-20 16:39:00,
2013-11-20 11:49:00,31.8,13.8,23.35,ESE,117,1.0,1.0,47,0.00,,,0.00,438,Wunderground v.1.15,2013-11-20 16:49:00,
2013-11-20 12:09:00,32.7,14.7,23.35,NNE,30,0.0,0.0,47,0.00,,,0.00,434,Wunderground v.1.15,2013-11-20 17:09:00,
2013-11-20 12:19:00,33.4,14.8,23.35,NNE,28,0.0,0.0,46,0.00,,,0.00,427,Wunderground v.1.15,2013-11-20 17:19:00,
2013-11-20 12:30:00,34.2,14.5,23.35,NNE,30,0.0,0.0,44,0.00,,,0.00,422,Wunderground v.1.15,2013-11-20 17:30:00,
2013-11-20 12:39:00,34.6,14.9,23.35,NW,318,0.0,0.0,44,0.00,,,0.00,411,Wunderground v.1.15,2013-11-20 17:39:00,
2013-11-20 12:49:00,34.6,14.9,23.35,NW,318,0.0,0.0,44,0.00,,,0.00,403,Wunderground v.1.15,2013-11-20 17:49:00,
2013-11-20 13:00:00,34.6,15.4,23.35,WNW,292,0.0,0.0,45,0.00,,,0.00,392,Wunderground v.1.15,2013-11-20 18:00:00,
2013-11-20 13:09:00,34.8,14.5,23.35,WNW,300,0.0,0.0,43,0.00,,,0.00,380,Wunderground v.1.15,2013-11-20 18:09:00,
2013-11-20 13:19:00,34.5,14.8,23.35,South,190,0.0,0.0,44,0.00,,,0.00,364,Wunderground v.1.15,2013-11-20 18:19:00,
2013-11-20 13:39:00,34.5,14.3,23.34,South,184,0.0,0.0,43,0.00,,,0.00,338,Wunderground v.1.15,2013-11-20 18:39:00,
2013-11-20 13:49:00,34.9,14.1,23.34,SW,217,0.0,0.0,42,0.00,,,0.00,42,Wunderground v.1.15,2013-11-20 18:49:00,
2013-11-20 14:00:00,35.5,13.5,23.34,SW,223,0.0,0.0,40,0.00,,,0.00,299,Wunderground v.1.15,2013-11-20 19:00:00,
2013-11-20 14:09:00,35.4,14.0,23.34,SSW,205,0.0,0.0,41,0.00,,,0.00,281,Wunderground v.1.15,2013-11-20 19:09:00,
2013-11-20 14:19:00,34.9,13.5,23.34,SSW,203,0.0,0.0,41,0.00,,,0.00,260,Wunderground v.1.15,2013-11-20 19:19:00,
2013-11-20 14:30:00,34.9,14.1,23.34,South,187,0.0,0.0,42,0.00,,,0.00,237,Wunderground v.1.15,2013-11-20 19:30:00,
2013-11-20 14:39:00,35.2,14.9,23.34,SSW,193,0.0,0.0,43,0.00,,,0.00,218,Wunderground v.1.15,2013-11-20 19:39:00,
2013-11-20 14:49:00,35.5,14.6,23.34,SSW,193,0.0,0.0,42,0.00,,,0.00,195,Wunderground v.1.15,2013-11-20 19:49:00,
2013-11-20 15:00:00,35.5,14.6,23.34,SSW,193,0.0,0.0,42,0.00,,,0.00,171,Wunderground v.1.15,2013-11-20 20:00:00,
2013-11-20 15:09:00,35.2,14.4,23.34,SSW,193,0.0,0.0,42,0.00,,,0.00,148,Wunderground v.1.15,2013-11-20 20:09:00,
2013-11-20 15:19:00,34.8,14.5,23.34,SSW,194,0.0,0.0,43,0.00,,,0.00,125,Wunderground v.1.15,2013-11-20 20:19:00,
2013-11-20 15:39:00,33.3,14.7,23.34,SSW,194,0.0,0.0,46,0.00,,,0.00,23,Wunderground v.1.15,2013-11-20 20:39:00,
2013-11-20 15:49:00,33.0,14.9,23.34,SSW,194,0.0,0.0,47,0.00,,,0.00,19,Wunderground v.1.15,2013-11-20 20:49:00,
2013-11-20 16:09:00,32.3,15.3,23.35,SSW,194,0.0,0.0,49,0.00,,,0.00,11,Wunderground v.1.15,2013-11-20 21:09:00,
2013-11-20 16:19:00,31.8,15.3,23.35,SSW,194,0.0,0.0,50,0.00,,,0.00,5,Wunderground v.1.15,2013-11-20 21:19:00,
2013-11-20 16:39:00,30.8,15.7,23.35,SSW,194,0.0,0.0,53,0.00,,,0.00,0,Wunderground v.1.15,2013-11-20 21:39:00,
2013-11-20 16:49:00,30.0,15.8,23.35,SSW,194,0.0,0.0,55,0.00,,,0.00,0,Wunderground v.1.15,2013-11-20 21:49:00,
2013-11-20 17:00:00,29.2,16.2,23.35,SSW,194,0.0,0.0,58,0.00,,,0.00,0,Wunderground v.1.15,2013-11-20 22:00:00,
2013-11-20 17:09:00,28.6,16.1,23.35,SSW,194,0.0,0.0,59,0.00,,,0.00,0,Wunderground v.1.15,2013-11-20 22:09:00,
2013-11-20 17:19:00,27.8,16.1,23.35,SSW,194,0.0,0.0,61,0.00,,,0.00,0,Wunderground v.1.15,2013-11-20 22:19:00,
2013-11-20 17:39:00,27.2,16.6,23.35,SSW,194,0.0,0.0,64,0.00,,,0.00,0,Wunderground v.1.15,2013-11-20 22:39:00,
2013-11-20 17:49:00,26.9,16.3,23.35,SSW,194,0.0,0.0,64,0.00,,,0.00,0,Wunderground v.1.15,2013-11-20 22:49:00,
2013-11-20 18:09:00,26.5,16.3,23.35,SSW,194,0.0,0.0,65,0.00,,,0.00,0,Wunderground v.1.15,2013-11-20 23:09:00,
2013-11-20 18:19:00,26.2,16.4,23.35,SSW,194,0.0,0.0,66,0.00,,,0.00,0,Wunderground v.1.15,2013-11-20 23:19:00,
2013-11-20 18:30:00,26.0,16.2,23.35,SSW,194,0.0,0.0,66,0.00,,,0.00,0,Wunderground v.1.15,2013-11-20 23:30:00,
2013-11-20 18:39:00,25.6,15.8,23.35,SSW,194,0.0,0.0,66,0.00,,,0.00,0,Wunderground v.1.15,2013-11-20 23:39:00,
2013-11-20 18:49:00,25.3,16.2,23.35,SSW,194,0.0,0.0,68,0.00,,,0.00,0,Wunderground v.1.15,2013-11-20 23:49:00,
2013-11-20 19:09:00,25.2,16.5,23.35,SSW,194,0.0,0.0,69,0.00,,,0.00,0,Wunderground v.1.15,2013-11-21 00:09:00,
2013-11-20 19:19:00,25.0,16.3,23.35,SSW,194,0.0,0.0,69,0.00,,,0.00,0,Wunderground v.1.15,2013-11-21 00:19:00,
2013-11-20 19:30:00,24.9,16.5,23.35,SSW,194,0.0,0.0,70,0.00,,,0.00,0,Wunderground v.1.15,2013-11-21 00:30:00,
2013-11-20 19:39:00,24.6,16.2,23.35,SSW,194,0.0,0.0,70,0.00,,,0.00,0,Wunderground v.1.15,2013-11-21 00:39:00,
2013-11-20 19:49:00,24.1,16.1,23.35,SSW,194,0.0,0.0,71,0.00,,,0.00,0,Wunderground v.1.15,2013-11-21 00:49:00,
2013-11-20 20:09:00,24.0,16.6,23.35,SSW,194,0.0,0.0,73,0.00,,,0.00,0,Wunderground v.1.15,2013-11-21 01:09:00,
2013-11-20 20:20:00,24.0,16.6,23.35,SSW,194,0.0,0.0,73,0.00,,,0.00,0,Wunderground v.1.15,2013-11-21 01:20:00,
2013-11-20 20:40:00,23.4,16.3,23.36,SSW,194,0.0,0.0,74,0.00,,,0.00,0,Wunderground v.1.15,2013-11-21 01:40:00,
2013-11-20 20:50:00,23.1,16.0,23.35,SSW,194,0.0,0.0,74,0.00,,,0.00,0,Wunderground v.1.15,2013-11-21 01:50:00,
2013-11-20 21:01:00,22.8,16.1,23.35,SSW,194,0.0,0.0,75,0.00,,,0.00,0,Wunderground v.1.15,2013-11-21 02:01:00,
2013-11-20 21:10:00,22.1,15.7,23.35,SSW,194,0.0,0.0,76,0.00,,,0.00,0,Wunderground v.1.15,2013-11-21 02:10:00,
2013-11-20 21:20:00,22.0,15.9,23.35,SSW,194,0.0,0.0,77,0.00,,,0.00,0,Wunderground v.1.15,2013-11-21 02:20:00,
2013-11-20 21:40:00,22.0,15.9,23.35,SSW,194,0.0,0.0,77,0.00,,,0.00,0,Wunderground v.1.15,2013-11-21 02:40:00,
2013-11-20 21:50:00,21.7,15.9,23.35,SSW,194,0.0,0.0,78,0.00,,,0.00,0,Wunderground v.1.15,2013-11-21 02:50:00,
2013-11-20 22:00:00,21.2,15.4,23.35,SSW,194,0.0,0.0,78,0.00,,,0.00,0,Wunderground v.1.15,2013-11-21 03:00:00,
2013-11-20 22:10:00,20.9,15.1,23.35,SSW,194,0.0,0.0,78,0.00,,,0.00,0,Wunderground v.1.15,2013-11-21 03:10:00,
2013-11-20 22:20:00,20.5,15.0,23.35,SSW,194,0.0,0.0,79,0.00,,,0.00,0,Wunderground v.1.15,2013-11-21 03:20:00,
2013-11-20 22:40:00,20.4,15.2,23.35,SSW,194,0.0,0.0,80,0.00,,,0.00,0,Wunderground v.1.15,2013-11-21 03:40:00,
2013-11-20 22:50:00,19.9,14.7,23.35,SSW,194,0.0,0.0,80,0.00,,,0.00,0,Wunderground v.1.15,2013-11-21 03:50:00,
2013-11-20 23:10:00,19.4,14.5,23.35,SSW,194,0.0,0.0,81,0.00,,,0.00,0,Wunderground v.1.15,2013-11-21 04:10:00,
2013-11-20 23:20:00,19.3,14.7,23.35,SSW,194,0.0,0.0,82,0.00,,,0.00,0,Wunderground v.1.15,2013-11-21 04:20:00,
2013-11-20 23:30:00,19.1,14.8,23.35,SSW,194,0.0,0.0,83,0.00,,,0.00,0,Wunderground v.1.15,2013-11-21 04:30:00,
2013-11-20 23:40:00,19.0,14.7,23.35,SSW,194,0.0,0.0,83,0.00,,,0.00,0,Wunderground v.1.15,2013-11-21 04:40:00,
2013-11-20 23:50:00,19.1,15.1,23.35,SSW,194,0.0,0.0,84,0.00,,,0.00,0,Wunderground v.1.15,2013-11-21 04:50:00,